createdAt,value
2019-04-25T00:00:46.499Z,15.14
2019-04-25T00:03:15.882Z,15.19
2019-04-25T00:05:43.607Z,15.14
2019-04-25T00:08:11.595Z,15.05
2019-04-25T00:10:39.206Z,15.08
2019-04-25T00:13:06.719Z,15.08
2019-04-25T00:15:33.922Z,15.13
2019-04-25T00:18:02.328Z,15.13
2019-04-25T00:20:31.843Z,15.16
2019-04-25T00:23:09.571Z,15.04
2019-04-25T00:25:56.564Z,14.91
2019-04-25T00:28:23.653Z,14.74
2019-04-25T00:30:52.266Z,14.71
2019-04-25T00:33:21.480Z,14.50
2019-04-25T00:35:51.672Z,14.61
2019-04-25T00:38:18.902Z,14.65
2019-04-25T00:40:45.966Z,14.66
2019-04-25T00:43:13.097Z,14.69
2019-04-25T00:45:42.426Z,14.68
2019-04-25T00:48:09.321Z,14.48
2019-04-25T00:50:36.439Z,14.30
2019-04-25T00:53:03.490Z,14.42
2019-04-25T00:55:31.486Z,14.53
2019-04-25T00:58:01.349Z,14.37
2019-04-25T01:00:33.630Z,14.45
2019-04-25T01:03:03.326Z,14.48
2019-04-25T01:05:31.625Z,14.37
2019-04-25T01:07:58.972Z,14.44
2019-04-25T01:10:26.073Z,14.41
2019-04-25T01:12:53.340Z,14.38
2019-04-25T01:15:21.480Z,14.22
2019-04-25T01:17:48.884Z,14.05
2019-04-25T01:20:16.363Z,13.92
2019-04-25T01:22:44.092Z,13.96
2019-04-25T01:25:11.882Z,13.93
2019-04-25T01:27:39.085Z,14.00
2019-04-25T01:30:08.263Z,13.69
2019-04-25T01:32:37.223Z,13.75
2019-04-25T01:35:14.972Z,13.79
2019-04-25T01:37:43.926Z,13.94
2019-04-25T01:40:23.592Z,13.76
2019-04-25T01:42:53.906Z,13.66
2019-04-25T01:45:24.033Z,13.70
2019-04-25T01:47:54.323Z,13.77
2019-04-25T01:50:23.296Z,13.71
2019-04-25T01:52:50.677Z,13.53
2019-04-25T01:55:17.582Z,13.55
2019-04-25T01:57:45.354Z,13.38
2019-04-25T02:00:14.620Z,13.56
2019-04-25T02:02:43.434Z,13.70
2019-04-25T02:05:11.456Z,13.42
2019-04-25T02:07:38.520Z,13.48
2019-04-25T02:10:07.787Z,13.35
2019-04-25T02:12:43.696Z,13.58
2019-04-25T02:15:14.324Z,13.59
2019-04-25T02:17:41.530Z,13.51
2019-04-25T02:20:09.083Z,13.03
2019-04-25T02:22:36.166Z,13.33
2019-04-25T02:25:04.638Z,13.45
2019-04-25T02:27:31.856Z,13.47
2019-04-25T02:29:58.986Z,13.52
2019-04-25T02:32:26.146Z,13.41
2019-04-25T02:34:58.228Z,13.18
2019-04-25T02:37:22.295Z,13.18
2019-04-25T02:39:49.342Z,12.75
2019-04-25T02:42:16.866Z,12.96
2019-04-25T02:44:46.288Z,13.11
2019-04-25T02:47:24.904Z,13.13
2019-04-25T02:50:08.587Z,13.15
2019-04-25T02:52:39.238Z,12.91
2019-04-25T02:55:10.314Z,12.77
2019-04-25T02:57:35.660Z,12.76
2019-04-25T03:00:07.530Z,12.99
2019-04-25T03:02:36.910Z,12.63
2019-04-25T03:05:08.127Z,12.58
2019-04-25T03:07:34.640Z,12.60
2019-04-25T03:10:05.733Z,12.76
2019-04-25T03:12:35.904Z,12.95
2019-04-25T03:15:02.098Z,12.98
2019-04-25T03:17:30.222Z,12.92
2019-04-25T03:20:16.203Z,12.66
2019-04-25T03:22:44.425Z,12.82
2019-04-25T03:25:16.466Z,12.73
2019-04-25T03:27:41.157Z,12.47
2019-04-25T03:30:13.491Z,12.64
2019-04-25T03:32:38.074Z,12.67
2019-04-25T03:35:05.892Z,12.45
2019-04-25T03:37:35.262Z,12.64
2019-04-25T03:40:06.498Z,12.53
2019-04-25T03:42:33.944Z,12.47
2019-04-25T03:45:01.543Z,12.61
2019-04-25T03:47:28.930Z,12.75
2019-04-25T03:49:56.127Z,12.91
2019-04-25T03:52:23.909Z,12.86
2019-04-25T03:54:51.340Z,12.72
2019-04-25T03:57:18.391Z,12.82
2019-04-25T03:59:45.438Z,12.72
2019-04-25T04:02:13.563Z,12.60
2019-04-25T04:04:43.520Z,12.57
2019-04-25T04:07:11.389Z,12.53
2019-04-25T04:09:39.480Z,12.65
2019-04-25T04:12:06.513Z,12.57
2019-04-25T04:14:33.940Z,12.69
2019-04-25T04:17:05.115Z,12.79
2019-04-25T04:19:34.087Z,12.74
2019-04-25T04:22:03.132Z,12.77
2019-04-25T04:24:34.058Z,12.73
2019-04-25T04:27:09.545Z,12.74
2019-04-25T04:29:38.081Z,12.82
2019-04-25T04:32:06.807Z,12.73
2019-04-25T04:34:34.526Z,12.70
2019-04-25T04:37:01.643Z,12.90
2019-04-25T04:39:28.812Z,12.84
2019-04-25T04:41:55.751Z,12.87
2019-04-25T04:44:24.127Z,12.85
2019-04-25T04:46:53.934Z,12.87
2019-04-25T04:49:20.861Z,12.95
2019-04-25T04:51:48.129Z,12.86
2019-04-25T04:54:15.518Z,12.92
2019-04-25T04:56:43.806Z,12.98
2019-04-25T04:59:11.123Z,12.93
2019-04-25T05:01:56.783Z,12.93
2019-04-25T05:04:25.951Z,13.03
2019-04-25T05:06:55.239Z,13.07
2019-04-25T05:09:24.335Z,13.16
2019-04-25T05:11:51.324Z,13.15
2019-04-25T05:14:19.436Z,13.15
2019-04-25T05:16:46.471Z,13.23
2019-04-25T05:19:15.464Z,13.22
2019-04-25T05:21:43.570Z,13.45
2019-04-25T05:24:12.198Z,13.45
2019-04-25T05:26:40.442Z,13.43
2019-04-25T05:29:07.367Z,13.49
2019-04-25T05:31:45.609Z,13.62
2019-04-25T05:34:14.553Z,13.73
2019-04-25T05:36:41.748Z,13.70
2019-04-25T05:39:09.248Z,13.76
2019-04-25T05:41:51.321Z,13.78
2019-04-25T05:44:18.743Z,13.79
2019-04-25T05:46:45.879Z,13.72
2019-04-25T05:49:13.814Z,13.73
2019-04-25T05:51:40.950Z,13.71
2019-04-25T05:54:08.091Z,13.74
2019-04-25T05:56:35.155Z,13.89
2019-04-25T05:59:03.379Z,14.11
2019-04-25T06:01:32.092Z,14.37
2019-04-25T06:03:59.469Z,14.47
2019-04-25T06:06:26.313Z,14.51
2019-04-25T06:08:55.633Z,14.76
2019-04-25T06:11:25.086Z,14.92
2019-04-25T06:13:54.592Z,15.10
2019-04-25T06:16:25.730Z,15.29
2019-04-25T06:19:13.003Z,15.46
2019-04-25T06:21:29.816Z,15.59
2019-04-25T06:24:14.149Z,15.76
2019-04-25T06:26:43.387Z,16.09
2019-04-25T06:29:10.520Z,16.40
2019-04-25T06:31:37.523Z,16.64
2019-04-25T06:34:05.138Z,16.95
2019-04-25T06:36:32.094Z,17.13
2019-04-25T06:38:59.441Z,17.37
2019-04-25T06:41:27.064Z,17.60
2019-04-25T06:43:56.191Z,17.99
2019-04-25T06:46:25.817Z,18.34
2019-04-25T06:48:55.616Z,18.71
2019-04-25T06:51:26.029Z,18.75
2019-04-25T06:53:53.558Z,19.25
2019-04-25T06:56:21.189Z,19.64
2019-04-25T06:58:48.781Z,19.81
2019-04-25T07:01:16.029Z,19.92
2019-04-25T07:03:44.184Z,20.23
2019-04-25T07:06:12.964Z,20.04
2019-04-25T07:08:40.822Z,20.00
2019-04-25T07:11:08.053Z,20.02
2019-04-25T07:13:38.539Z,20.10
2019-04-25T07:16:04.797Z,20.20
2019-04-25T07:18:34.370Z,20.47
2019-04-25T07:21:00.806Z,20.44
2019-04-25T07:23:27.779Z,20.86
2019-04-25T07:25:56.937Z,20.24
2019-04-25T07:28:32.964Z,20.85
2019-04-25T07:31:19.905Z,20.96
2019-04-25T07:33:48.734Z,21.46
2019-04-25T07:36:15.858Z,20.83
2019-04-25T07:38:43.476Z,20.95
2019-04-25T07:41:10.753Z,21.05
2019-04-25T07:43:37.656Z,21.31
2019-04-25T07:46:04.966Z,21.76
2019-04-25T07:48:36.303Z,22.02
2019-04-25T07:51:01.094Z,21.30
2019-04-25T07:53:30.342Z,22.26
2019-04-25T07:55:57.568Z,21.90
2019-04-25T07:58:37.820Z,21.49
2019-04-25T08:00:57.144Z,21.46
2019-04-25T08:03:25.390Z,21.90
2019-04-25T08:05:53.394Z,22.69
2019-04-25T08:08:20.731Z,22.40
2019-04-25T08:10:57.777Z,22.14
2019-04-25T08:13:27.737Z,22.04
2019-04-25T08:16:01.041Z,22.19
2019-04-25T08:18:30.204Z,22.81
2019-04-25T08:20:57.774Z,22.44
2019-04-25T08:23:26.228Z,22.53
2019-04-25T08:25:54.417Z,22.47
2019-04-25T08:28:21.768Z,22.64
2019-04-25T08:30:48.774Z,23.01
2019-04-25T08:33:15.841Z,22.71
2019-04-25T08:36:02.994Z,23.33
2019-04-25T08:38:13.760Z,23.12
2019-04-25T08:40:44.124Z,23.21
2019-04-25T08:43:11.388Z,23.69
2019-04-25T08:45:38.558Z,23.35
2019-04-25T08:48:05.936Z,23.65
2019-04-25T08:50:39.475Z,23.63
2019-04-25T08:53:04.066Z,23.78
2019-04-25T08:55:45.610Z,23.80
2019-04-25T08:58:24.175Z,24.07
2019-04-25T09:01:05.711Z,24.44
2019-04-25T09:03:36.592Z,24.34
2019-04-25T09:06:03.971Z,24.48
2019-04-25T09:08:31.314Z,24.14
2019-04-25T09:10:58.496Z,24.24
2019-04-25T09:13:25.911Z,24.00
2019-04-25T09:15:54.063Z,23.56
2019-04-25T09:18:21.163Z,23.97
2019-04-25T09:20:48.239Z,24.97
2019-04-25T09:23:15.343Z,25.36
2019-04-25T09:25:44.456Z,24.87
2019-04-25T09:28:11.647Z,24.76
2019-04-25T09:30:38.730Z,25.56
2019-04-25T09:33:06.567Z,24.78
2019-04-25T09:35:36.042Z,24.91
2019-04-25T09:38:03.500Z,25.38
2019-04-25T09:40:30.797Z,25.81
2019-04-25T09:42:58.009Z,25.92
2019-04-25T09:45:33.794Z,25.87
2019-04-25T09:48:06.073Z,26.29
2019-04-25T09:50:41.470Z,25.71
2019-04-25T09:59:27.311Z,28.88
2019-04-25T10:01:49.335Z,28.01
2019-04-25T10:04:16.701Z,28.12
2019-04-25T10:06:44.972Z,27.59
2019-04-25T10:09:15.700Z,27.15
2019-04-25T10:11:45.419Z,27.28
2019-04-25T10:14:26.267Z,27.27
2019-04-25T10:16:53.986Z,27.91
2019-04-25T10:19:21.053Z,27.59
2019-04-25T10:21:48.149Z,28.04
2019-04-25T10:24:16.842Z,27.62
2019-04-25T10:26:45.123Z,27.95
2019-04-25T10:29:12.605Z,27.63
2019-04-25T10:31:40.692Z,27.50
2019-04-25T10:34:07.853Z,27.20
2019-04-25T10:36:38.775Z,26.89
2019-04-25T10:39:10.785Z,26.76
2019-04-25T10:41:36.394Z,26.57
2019-04-25T10:44:04.048Z,26.70
2019-04-25T10:46:31.361Z,27.05
2019-04-25T10:48:58.904Z,27.54
2019-04-25T10:51:26.012Z,27.37
2019-04-25T10:53:53.919Z,27.42
2019-04-25T10:56:22.000Z,27.38
2019-04-25T10:58:49.101Z,27.55
2019-04-25T11:01:16.254Z,27.84
2019-04-25T11:03:57.469Z,27.73
2019-04-25T11:06:26.382Z,27.45
2019-04-25T11:08:55.494Z,26.93
2019-04-25T11:11:23.993Z,27.14
2019-04-25T11:13:54.229Z,27.40
2019-04-25T11:16:21.570Z,27.19
2019-04-25T11:18:49.576Z,27.45
2019-04-25T11:21:16.796Z,28.04
2019-04-25T11:23:46.147Z,28.66
2019-04-25T11:26:13.861Z,29.05
2019-04-25T11:28:51.970Z,29.42
2019-04-25T11:31:21.155Z,29.69
2019-04-25T11:33:48.199Z,30.07
2019-04-25T11:36:15.353Z,29.54
2019-04-25T11:38:53.763Z,29.45
2019-04-25T11:41:22.178Z,29.62
2019-04-25T11:43:49.190Z,29.58
2019-04-25T11:46:16.498Z,29.52
2019-04-25T11:48:45.057Z,29.69
2019-04-25T11:51:13.755Z,30.11
2019-04-25T11:53:41.013Z,30.35
2019-04-25T11:56:08.005Z,30.37
2019-04-25T11:58:34.890Z,30.13
2019-04-25T12:01:03.390Z,29.78
2019-04-25T12:03:31.336Z,29.62
2019-04-25T12:05:58.431Z,28.78
2019-04-25T12:08:25.493Z,29.68
2019-04-25T12:10:53.890Z,29.66
2019-04-25T12:13:21.181Z,29.76
2019-04-25T12:15:48.260Z,30.32
2019-04-25T12:18:15.233Z,30.39
2019-04-25T12:20:44.092Z,29.91
2019-04-25T12:23:11.477Z,29.86
2019-04-25T12:25:39.526Z,29.66
2019-04-25T12:28:06.588Z,29.54
2019-04-25T12:30:39.512Z,29.26
2019-04-25T12:33:03.338Z,29.63
2019-04-25T12:35:34.081Z,30.18
2019-04-25T12:38:03.477Z,30.42
2019-04-25T12:40:30.486Z,30.23
2019-04-25T12:42:57.491Z,30.98
2019-04-25T12:45:35.535Z,30.69
2019-04-25T12:48:04.755Z,30.33
2019-04-25T12:50:31.619Z,29.89
2019-04-25T12:52:58.705Z,29.48
2019-04-25T12:55:25.819Z,29.49
2019-04-25T12:57:54.921Z,29.97
2019-04-25T13:00:24.284Z,30.07
2019-04-25T13:02:52.681Z,30.15
2019-04-25T13:05:20.130Z,30.05
2019-04-25T13:07:48.687Z,29.99
2019-04-25T13:10:16.083Z,30.03
2019-04-25T13:12:44.342Z,30.21
2019-04-25T13:15:13.077Z,30.68
2019-04-25T13:17:39.911Z,31.18
2019-04-25T13:20:07.569Z,31.48
2019-04-25T13:22:34.923Z,31.53
2019-04-25T13:25:03.448Z,31.25
2019-04-25T13:27:33.631Z,30.98
2019-04-25T13:30:18.247Z,31.31
2019-04-25T13:32:48.780Z,31.29
2019-04-25T13:35:20.419Z,31.20
2019-04-25T13:37:47.268Z,31.04
2019-04-25T13:40:16.930Z,31.50
2019-04-25T13:42:43.547Z,31.69
2019-04-25T13:45:10.695Z,30.98
2019-04-25T13:47:37.747Z,30.88
2019-04-25T13:50:07.789Z,30.24
2019-04-25T13:52:36.194Z,29.88
2019-04-25T13:55:04.613Z,30.27
2019-04-25T13:57:32.350Z,30.15
2019-04-25T13:59:59.516Z,30.09
2019-04-25T14:02:26.788Z,30.44
2019-04-25T14:04:54.098Z,30.84
2019-04-25T14:07:21.820Z,30.97
2019-04-25T14:09:48.872Z,31.06
2019-04-25T14:12:16.328Z,31.02
2019-04-25T14:14:44.143Z,30.71
2019-04-25T14:17:24.480Z,30.64
2019-04-25T14:19:56.088Z,30.65
2019-04-25T14:22:23.410Z,30.93
2019-04-25T14:24:50.582Z,30.77
2019-04-25T14:27:17.439Z,30.23
2019-04-25T14:29:45.376Z,30.29
2019-04-25T14:32:15.212Z,30.24
2019-04-25T14:34:43.276Z,30.11
2019-04-25T14:37:10.490Z,30.10
2019-04-25T14:39:37.893Z,30.40
2019-04-25T14:42:04.831Z,30.22
2019-04-25T14:44:32.036Z,29.74
2019-04-25T14:46:58.854Z,29.42
2019-04-25T14:49:26.307Z,29.56
2019-04-25T14:51:54.487Z,29.50
2019-04-25T14:54:23.262Z,29.62
2019-04-25T14:57:00.150Z,29.47
2019-04-25T14:59:27.309Z,29.10
2019-04-25T15:01:56.267Z,29.16
2019-04-25T15:04:24.058Z,29.10
2019-04-25T15:06:51.138Z,28.90
2019-04-25T15:09:18.478Z,28.90
2019-04-25T15:11:45.578Z,28.38
2019-04-25T15:14:12.573Z,28.30
2019-04-25T15:16:39.497Z,28.04
2019-04-25T15:19:06.884Z,28.06
2019-04-25T15:21:34.005Z,27.88
2019-04-25T15:24:01.152Z,27.87
2019-04-25T15:26:28.935Z,28.01
2019-04-25T15:28:57.562Z,27.91
2019-04-25T15:31:25.566Z,27.71
2019-04-25T15:47:34.040Z,28.83
2019-04-25T15:50:01.330Z,26.88
2019-04-25T15:52:29.051Z,26.74
2019-04-25T15:55:06.523Z,27.12
2019-04-25T15:57:25.007Z,26.82
2019-04-25T15:59:52.005Z,26.71
2019-04-25T16:02:19.520Z,26.46
2019-04-25T16:04:46.389Z,26.39
2019-04-25T16:07:13.538Z,26.29
2019-04-25T16:09:41.334Z,26.29
2019-04-25T16:12:08.875Z,26.06
2019-04-25T16:14:35.789Z,25.89
2019-04-25T16:17:02.878Z,25.89
2019-04-25T16:19:29.868Z,25.91
2019-04-25T16:21:56.731Z,25.98
2019-04-25T16:24:23.640Z,25.77
2019-04-25T16:26:50.832Z,25.84
2019-04-25T16:29:17.698Z,25.72
2019-04-25T16:31:44.772Z,25.68
2019-04-25T16:34:11.631Z,25.60
2019-04-25T16:36:39.681Z,25.60
2019-04-25T16:39:08.681Z,25.59
2019-04-25T16:41:35.861Z,25.52
2019-04-25T16:44:07.710Z,25.48
2019-04-25T16:46:34.877Z,25.47
2019-04-25T16:49:01.932Z,25.48
2019-04-25T16:51:29.308Z,25.32
2019-04-25T16:53:56.425Z,25.36
2019-04-25T16:56:23.659Z,25.27
2019-04-25T16:58:50.579Z,25.10
2019-04-25T17:01:17.944Z,25.12
2019-04-25T17:03:45.033Z,25.09
2019-04-25T17:06:12.281Z,24.96
2019-04-25T17:08:40.221Z,24.88
2019-04-25T17:11:07.535Z,24.86
2019-04-25T17:13:36.541Z,24.70
2019-04-25T17:16:18.025Z,24.64
2019-04-25T17:18:55.900Z,24.55
2019-04-25T17:21:23.680Z,24.48
2019-04-25T17:23:50.579Z,24.35
2019-04-25T17:26:18.282Z,24.34
2019-04-25T17:28:47.539Z,24.24
2019-04-25T17:31:23.623Z,24.20
2019-04-25T17:34:07.826Z,24.15
2019-04-25T17:36:40.770Z,24.04
2019-04-25T17:39:26.426Z,24.04
2019-04-25T17:41:53.581Z,23.88
2019-04-25T17:44:20.663Z,23.81
2019-04-25T17:46:47.597Z,23.72
2019-04-25T17:49:14.429Z,23.59
2019-04-25T17:51:41.988Z,23.53
2019-04-25T17:54:09.199Z,23.45
2019-04-25T17:56:36.423Z,23.40
2019-04-25T17:59:04.618Z,23.40
2019-04-25T18:01:32.895Z,23.32
2019-04-25T18:04:00.838Z,23.17
2019-04-25T18:06:27.682Z,23.10
2019-04-25T18:08:54.886Z,23.02
2019-04-25T18:11:21.860Z,23.05
2019-04-25T18:13:48.826Z,22.90
2019-04-25T18:16:21.239Z,22.92
2019-04-25T18:18:51.789Z,22.87
2019-04-25T18:21:18.656Z,22.80
2019-04-25T18:24:03.947Z,22.74
2019-04-25T18:26:50.920Z,22.72
2019-04-25T18:29:19.230Z,22.65
2019-04-25T18:31:46.371Z,22.62
2019-04-25T18:34:33.810Z,22.54
2019-04-25T18:37:19.757Z,22.53
2019-04-25T18:39:48.773Z,22.52
2019-04-25T18:42:34.552Z,22.44
2019-04-25T18:45:02.245Z,22.37
2019-04-25T18:47:29.651Z,22.28
2019-04-25T18:49:56.645Z,22.29
2019-04-25T18:52:31.730Z,22.16
2019-04-25T18:55:17.126Z,22.13
2019-04-25T18:57:47.252Z,22.21
2019-04-25T19:00:16.438Z,21.98
2019-04-25T19:02:54.694Z,21.99
2019-04-25T19:05:23.865Z,22.03
2019-04-25T19:07:51.607Z,22.01
2019-04-25T19:10:19.589Z,22.08
2019-04-25T19:12:47.358Z,21.97
2019-04-25T19:15:14.609Z,21.73
2019-04-25T19:17:41.660Z,21.87
2019-04-25T19:20:10.053Z,21.77
2019-04-25T19:22:37.352Z,21.66
2019-04-25T19:25:05.181Z,21.70
2019-04-25T19:27:32.353Z,21.69
2019-04-25T19:29:59.122Z,21.65
2019-04-25T19:32:26.928Z,21.53
2019-04-25T19:34:53.956Z,21.58
2019-04-25T19:37:23.487Z,21.54
2019-04-25T19:39:55.497Z,21.50
2019-04-25T19:42:24.894Z,21.41
2019-04-25T19:44:52.823Z,21.36
2019-04-25T19:47:20.784Z,21.53
2019-04-25T19:49:48.006Z,21.52
2019-04-25T19:52:15.107Z,21.49
2019-04-25T19:54:43.173Z,21.37
2019-04-25T19:57:10.659Z,21.24
2019-04-25T19:59:37.658Z,21.40
2019-04-25T20:02:22.326Z,21.42
2019-04-25T20:04:51.324Z,21.26
2019-04-25T20:07:26.597Z,21.24
2019-04-25T20:10:01.606Z,21.21
2019-04-25T20:12:31.049Z,21.17
2019-04-25T20:14:58.318Z,21.18
2019-04-25T20:17:26.908Z,21.16
2019-04-25T20:19:53.943Z,21.16
2019-04-25T20:22:21.117Z,20.99
2019-04-25T20:24:48.421Z,21.07
2019-04-25T20:27:15.582Z,20.99
2019-04-25T20:29:42.615Z,20.90
2019-04-25T20:32:09.629Z,20.78
2019-04-25T20:34:36.689Z,20.94
2019-04-25T20:37:03.576Z,20.74
2019-04-25T20:39:30.905Z,20.42
2019-04-25T20:41:57.800Z,20.60
2019-04-25T20:44:24.593Z,20.45
2019-04-25T20:46:52.843Z,20.47
2019-04-25T20:49:19.588Z,20.03
2019-04-25T20:51:47.153Z,19.93
2019-04-25T20:54:14.182Z,19.58
2019-04-25T20:56:41.160Z,19.62
2019-04-25T20:59:08.205Z,19.70
2019-04-25T21:01:35.324Z,19.60
2019-04-25T21:04:12.794Z,19.66
2019-04-25T21:06:33.202Z,19.68
2019-04-25T21:08:59.995Z,19.57
2019-04-25T21:11:27.820Z,19.46
2019-04-25T21:14:02.773Z,19.12
2019-04-25T21:16:50.471Z,19.07
2019-04-25T21:19:19.858Z,19.00
2019-04-25T21:21:46.726Z,18.64
2019-04-25T21:24:13.761Z,18.28
2019-04-25T21:26:41.006Z,18.23
2019-04-25T21:29:10.162Z,18.06
2019-04-25T21:31:37.608Z,18.20
2019-04-25T21:34:04.596Z,18.48
2019-04-25T21:36:31.971Z,17.83
2019-04-25T21:38:59.822Z,17.78
2019-04-25T21:41:38.242Z,17.57
2019-04-25T21:44:06.751Z,17.84
2019-04-25T21:46:33.946Z,17.92
2019-04-25T21:49:01.754Z,18.00
2019-04-25T21:51:31.663Z,17.71
2019-04-25T21:54:01.368Z,17.52
2019-04-25T21:56:28.718Z,17.92
2019-04-25T21:58:55.702Z,17.79
2019-04-25T22:01:25.194Z,17.70
2019-04-25T22:03:52.274Z,17.27
2019-04-25T22:06:19.829Z,17.34
2019-04-25T22:08:46.753Z,17.26
2019-04-25T22:11:13.764Z,17.57
2019-04-25T22:13:43.043Z,17.46
2019-04-25T22:16:10.472Z,16.96
2019-04-25T22:18:37.878Z,17.12
2019-04-25T22:21:05.031Z,17.01
2019-04-25T22:23:32.306Z,16.63
2019-04-25T22:26:01.387Z,16.38
2019-04-25T22:28:29.497Z,16.78
2019-04-25T22:30:59.201Z,16.76
2019-04-25T22:33:34.224Z,16.61
2019-04-25T22:36:08.843Z,16.36
2019-04-25T22:38:35.741Z,15.96
2019-04-25T22:41:03.568Z,16.48
2019-04-25T22:43:32.966Z,16.67
2019-04-25T22:46:00.776Z,16.90
2019-04-25T22:48:46.936Z,16.71
2019-04-25T22:51:14.026Z,16.56
2019-04-25T22:53:41.086Z,16.31
2019-04-25T22:56:08.125Z,16.60
2019-04-25T22:58:34.939Z,16.05
2019-04-25T23:01:04.998Z,16.09
2019-04-25T23:03:49.384Z,16.28
2019-04-25T23:06:16.637Z,16.62
2019-04-25T23:08:43.499Z,16.35
2019-04-25T23:11:10.620Z,16.34
2019-04-25T23:13:37.537Z,16.37
2019-04-25T23:16:05.102Z,15.92
2019-04-25T23:18:32.284Z,15.96
2019-04-25T23:20:59.406Z,16.35
2019-04-25T23:23:26.519Z,15.73
2019-04-25T23:25:55.481Z,15.46
2019-04-25T23:28:24.632Z,15.59
2019-04-25T23:30:59.635Z,15.72
2019-04-25T23:33:26.529Z,16.26
2019-04-25T23:35:53.600Z,15.55
2019-04-25T23:38:20.679Z,15.74
2019-04-25T23:40:47.987Z,15.53
2019-04-25T23:43:15.840Z,15.27
2019-04-25T23:45:42.941Z,15.54
2019-04-25T23:48:10.372Z,15.31
2019-04-25T23:50:37.167Z,15.67
2019-04-25T23:53:04.155Z,15.85
2019-04-25T23:55:31.355Z,15.41
2019-04-25T23:57:58.203Z,15.43
